Time;durP1;ratioP1;P1;durP2;ratioP2;P2;SDS_P1;SDS_P2;PMS_P1;PMS_P2;Temp;Humidity;BMP_temperature;BMP_pressure;BME280_temperature;BME280_humidity;BME280_pressure;Samples;Min_cycle;Max_cycle;Signal;HPM_P1;HPM_P2
2022/02/11 00:07:58;;;;;;;19.98;2.90;;;;;;;6.02;100.00;101990.22;5035213;28;20370;-30
2022/02/11 00:10:27;;;;;;;18.63;3.05;;;;;;;6.04;100.00;101982.50;5071106;28;20044;-31
2022/02/11 00:12:56;;;;;;;20.33;3.13;;;;;;;6.03;100.00;101972.50;5070719;28;20056;-31
2022/02/11 00:15:44;;;;;;;15.88;2.40;;;;;;;6.02;100.00;101970.81;5062661;28;20079;-31
2022/02/11 00:18:13;;;;;;;15.85;2.83;;;;;;;5.95;100.00;101957.13;5070161;28;20485;-32
2022/02/11 00:20:46;;;;;;;23.02;3.08;;;;;;;5.93;100.00;101978.69;5071161;28;20481;-30
2022/02/11 00:23:13;;;;;;;;;;;;;;;5.85;100.00;101971.53;5071436;28;20478;-30
2022/02/11 00:25:47;;;;;;;14.05;1.80;;;;;;;5.75;100.00;101976.00;5070307;28;19921;-31
2022/02/11 00:31:24;;;;;;;;;;;;;;;5.57;100.00;101965.88;5063302;28;20052;-30
2022/02/11 00:33:55;;;;;;;14.60;2.17;;;;;;;5.47;100.00;101973.91;5070428;28;19980;-31
2022/02/11 00:36:28;;;;;;;16.23;2.00;;;;;;;5.49;100.00;101969.81;5071041;28;20080;-31
2022/02/11 00:39:10;;;;;;;13.52;1.95;;;;;;;5.49;100.00;101955.97;5070821;28;20051;-31
2022/02/11 01:03:54;;;;;;;19.17;2.78;;;;;;;5.71;100.00;101947.94;5059203;28;20052;-30
2022/02/11 01:06:22;;;;;;;17.75;2.83;;;;;;;5.72;100.00;101944.06;5069510;28;20056;-32
2022/02/11 01:08:49;;;;;;;16.02;2.55;;;;;;;5.77;100.00;101951.66;5058054;28;20543;-30
2022/02/11 01:11:23;;;;;;;23.02;3.42;;;;;;;5.77;100.00;101951.66;5070029;28;20049;-30
2022/02/11 01:13:50;;;;;;;24.25;3.67;;;;;;;5.74;100.00;101960.47;5069993;28;20040;-30
2022/02/11 01:16:24;;;;;;;20.88;3.03;;;;;;;5.68;100.00;101956.72;5069234;28;20059;-31
2022/02/11 01:19:01;;;;;;;25.83;3.72;;;;;;;5.64;100.00;101949.97;5070009;28;20056;-31
2022/02/11 01:21:38;;;;;;;21.38;2.90;;;;;;;5.62;100.00;101949.34;5069210;28;20048;-30
2022/02/11 01:24:17;;;;;;;25.80;3.55;;;;;;;5.59;100.00;101947.09;5069967;28;20059;-31
2022/02/11 01:26:53;;;;;;;24.33;4.15;;;;;;;5.59;100.00;101933.25;5070145;28;20135;-31
2022/02/11 01:29:52;;;;;;;29.65;3.67;;;;;;;5.60;100.00;101947.91;5069431;28;20033;-31
2022/02/11 01:32:35;;;;;;;27.13;3.88;;;;;;;5.59;100.00;101946.25;5070011;28;20262;-31
2022/02/11 01:35:15;;;;;;;26.73;3.53;;;;;;;5.60;100.00;101939.59;5069914;28;20044;-31
2022/02/11 01:37:53;;;;;;;20.45;2.92;;;;;;;5.62;100.00;101942.97;5069572;28;20056;-31
2022/02/11 01:49:13;;;;;;;19.77;3.15;;;;;;;5.65;100.00;101968.25;5062663;28;20119;-31
2022/02/11 01:51:50;;;;;;;26.73;3.50;;;;;;;5.61;100.00;101964.28;5069602;28;20481;-30
2022/02/11 01:54:34;;;;;;;17.92;2.90;;;;;;;5.57;100.00;101974.16;5072004;28;20052;-32
2022/02/11 01:57:09;;;;;;;19.65;2.70;;;;;;;5.53;100.00;101957.19;5068970;28;20409;-31
2022/02/11 02:03:03;;;;;;;19.17;2.80;;;;;;;5.58;100.00;101955.63;5056249;28;20048;-31
2022/02/11 02:06:05;;;;;;;20.70;2.95;;;;;;;5.61;100.00;101952.34;5072602;28;20036;-32
2022/02/11 02:09:06;;;;;;;23.23;3.83;;;;;;;5.62;100.00;101957.66;5073104;28;20517;-30
2022/02/11 02:12:03;;;;;;;23.33;3.38;;;;;;;5.66;100.00;101960.78;5071980;28;20048;-30
2022/02/11 02:23:05;;;;;;;21.38;2.90;;;;;;;5.67;100.00;102001.25;5072676;28;20416;-30
2022/02/11 02:25:40;;;;;;;20.23;3.13;;;;;;;5.62;100.00;101984.50;5071763;28;20477;-30
2022/02/11 02:34:14;;;;;;;26.48;3.33;;;;;;;5.54;100.00;101985.72;5055132;28;20055;-30
2022/02/11 02:43:20;;;;;;;22.47;3.40;;;;;;;5.56;100.00;101993.78;5070668;28;20052;-31
2022/02/11 02:56:37;;;;;;;20.25;3.13;;;;;;;5.59;100.00;101996.94;5072176;28;20040;-30
2022/02/11 02:56:48;;;;;;;19.02;3.90;;;;;;;5.55;100.00;102004.00;5072104;28;20064;-30
2022/02/11 02:59:32;;;;;;;22.48;3.17;;;;;;;5.57;100.00;102012.09;5072268;28;20033;-30
2022/02/11 03:02:06;;;;;;;30.05;4.10;;;;;;;5.61;100.00;102005.81;5070121;28;20051;-30
2022/02/11 03:16:38;;;;;;;26.33;3.70;;;;;;;5.72;100.00;102043.78;5066109;28;20053;-32
2022/02/11 03:48:31;;;;;;;25.88;4.10;;;;;;;5.40;100.00;102070.88;5070791;28;20041;-32
2022/02/11 03:49:37;;;;;;;21.67;2.92;;;;;;;5.38;100.00;102109.03;5070322;28;20036;-31
2022/02/11 03:52:25;;;;;;;20.45;3.72;;;;;;;5.37;100.00;102110.13;5070976;28;20532;-29
2022/02/11 03:55:28;;;;;;;25.38;3.35;;;;;;;5.36;100.00;102121.41;5071142;28;20048;-31
2022/02/11 03:58:18;;;;;;;24.40;4.10;;;;;;;5.35;100.00;102128.88;5061834;28;20048;-31
2022/02/11 04:20:43;;;;;;;23.85;3.58;;;;;;;5.16;100.00;102185.31;5068635;28;20040;-28
2022/02/11 04:23:38;;;;;;;24.83;4.35;;;;;;;5.15;100.00;102203.84;5070538;28;20045;-30
2022/02/11 05:00:15;;;;;;;16.08;2.90;;;;;;;4.85;100.00;102302.44;5069656;28;20048;-30
2022/02/11 05:02:45;;;;;;;21.20;3.65;;;;;;;4.81;100.00;102313.09;5070841;28;20465;-30
2022/02/11 05:05:13;;;;;;;28.42;3.63;;;;;;;4.76;100.00;102312.13;5069301;28;20049;-29
2022/02/11 05:07:41;;;;;;;24.80;3.88;;;;;;;4.74;100.00;102308.72;5070223;28;20048;-30
2022/02/11 05:10:13;;;;;;;19.75;3.35;;;;;;;4.69;100.00;102325.97;5070815;28;20041;-29
2022/02/11 05:12:43;;;;;;;25.48;3.60;;;;;;;4.63;100.00;102331.53;5070375;28;20057;-31
2022/02/11 05:15:12;;;;;;;25.70;3.60;;;;;;;4.60;100.00;102338.38;5070012;28;20049;-31
2022/02/11 05:17:43;;;;;;;20.80;3.20;;;;;;;4.58;100.00;102339.69;5070444;28;20048;-31
2022/02/11 05:20:11;;;;;;;17.92;3.38;;;;;;;4.56;100.00;102339.06;5071046;28;20052;-31
2022/02/11 05:22:39;;;;;;;15.85;2.58;;;;;;;4.57;100.00;102351.81;5069564;28;20405;-30
2022/02/11 05:25:08;;;;;;;21.55;2.88;;;;;;;4.57;100.00;102349.91;5070292;28;20055;-30
2022/02/11 05:27:36;;;;;;;19.30;3.10;;;;;;;4.58;100.00;102345.22;5072090;28;20059;-29
2022/02/11 05:30:07;;;;;;;22.52;3.60;;;;;;;4.59;100.00;102352.44;5074560;28;20098;-31
2022/02/11 05:32:36;;;;;;;27.65;3.05;;;;;;;4.60;100.00;102360.47;5074220;28;20163;-32
2022/02/11 05:35:04;;;;;;;24.33;3.88;;;;;;;4.61;100.00;102364.94;5073161;28;20049;-32
2022/02/11 05:37:32;;;;;;;22.80;3.20;;;;;;;4.60;100.00;102370.69;5074468;28;20409;-30
2022/02/11 05:40:00;;;;;;;24.52;3.70;;;;;;;4.58;100.00;102364.56;5073957;28;20057;-30
2022/02/11 05:42:28;;;;;;;22.90;3.90;;;;;;;4.58;100.00;102361.81;5073175;28;20041;-30
2022/02/11 05:44:56;;;;;;;20.92;2.90;;;;;;;4.57;100.00;102365.63;5073976;28;20052;-31
2022/02/11 05:47:26;;;;;;;20.33;3.50;;;;;;;4.57;100.00;102374.78;5073928;28;20508;-31
2022/02/11 05:49:54;;;;;;;27.42;4.03;;;;;;;4.55;100.00;102384.34;5073245;28;20052;-31
2022/02/11 05:52:42;;;;;;;31.52;4.47;;;;;;;4.52;100.00;102387.56;5072707;28;20041;-30
2022/02/11 05:55:10;;;;;;;26.77;3.88;;;;;;;4.51;100.00;102395.00;5074135;28;20398;-30
2022/02/11 05:57:37;;;;;;;24.20;3.58;;;;;;;4.52;100.00;102398.63;5072632;28;20063;-31
2022/02/11 06:00:06;;;;;;;28.58;3.53;;;;;;;4.56;100.00;102399.88;5073704;28;20048;-33
2022/02/11 06:02:38;;;;;;;22.65;4.00;;;;;;;4.56;100.00;102416.47;5073036;28;20655;-31
2022/02/11 06:05:06;;;;;;;26.38;4.00;;;;;;;4.58;100.00;102417.09;5073623;28;20049;-30
2022/02/11 06:07:34;;;;;;;27.52;3.78;;;;;;;4.60;100.00;102417.69;5073673;28;20424;-33
2022/02/11 06:10:02;;;;;;;26.17;4.22;;;;;;;4.64;100.00;102432.78;5072789;28;20056;-32
2022/02/11 06:12:29;;;;;;;22.52;3.45;;;;;;;4.66;100.00;102433.41;5073535;28;20056;-31
2022/02/11 06:14:57;;;;;;;30.20;4.28;;;;;;;4.68;100.00;102445.09;5073032;28;20048;-29
2022/02/11 06:17:25;;;;;;;33.83;4.35;;;;;;;4.70;100.00;102462.31;5071159;28;20048;-31
2022/02/11 06:19:57;;;;;;;30.20;3.83;;;;;;;4.72;100.00;102462.94;5071359;28;20480;-30
2022/02/11 06:22:24;;;;;;;22.67;3.85;;;;;;;4.73;100.00;102471.03;5072368;28;20055;-30
2022/02/11 06:24:53;;;;;;;25.45;4.43;;;;;;;4.75;100.00;102484.63;5072060;28;20052;-29
2022/02/11 06:27:21;;;;;;;18.67;2.92;;;;;;;4.78;100.00;102495.25;5072492;28;20405;-32
2022/02/11 06:29:49;;;;;;;17.80;3.25;;;;;;;4.80;100.00;102498.63;5072507;28;20530;-30
2022/02/11 06:32:16;;;;;;;16.58;2.60;;;;;;;4.79;100.00;102488.66;5072074;28;20048;-31
2022/02/11 06:34:44;;;;;;;17.42;3.33;;;;;;;4.79;98.79;102522.69;5072141;28;20048;-31
2022/02/11 06:37:13;;;;;;;19.00;3.10;;;;;;;4.80;96.95;102517.97;5071944;28;20044;-31
2022/02/11 06:39:41;;;;;;;22.55;2.95;;;;;;;4.83;96.07;102553.50;5070981;28;20059;-30
2022/02/11 06:42:09;;;;;;;17.65;2.47;;;;;;;4.80;94.67;102538.19;5070525;28;20048;-32
2022/02/11 06:44:36;;;;;;;19.30;3.15;;;;;;;4.80;94.47;102543.72;5068464;28;20063;-30
2022/02/11 06:47:05;;;;;;;16.58;2.97;;;;;;;4.77;92.19;102532.28;5070815;28;20048;-31
2022/02/11 06:49:32;;;;;;;17.15;2.72;;;;;;;4.81;93.01;102556.47;5071302;28;20091;-30
2022/02/11 06:52:00;;;;;;;18.15;2.83;;;;;;;4.84;94.22;102560.72;5070407;28;20493;-31
2022/02/11 06:54:29;;;;;;;18.83;2.53;;;;;;;4.89;94.51;102571.97;5068758;28;20059;-31
2022/02/11 06:56:57;;;;;;;28.05;3.40;;;;;;;4.91;95.30;102566.22;5071047;28;20063;-31
2022/02/11 06:59:24;;;;;;;28.80;3.58;;;;;;;4.93;93.80;102589.00;5070160;28;20048;-32
2022/02/11 07:01:52;;;;;;;18.23;3.03;;;;;;;4.93;93.71;102586.22;5070701;28;20051;-31
2022/02/11 07:04:20;;;;;;;21.85;2.92;;;;;;;4.94;93.57;102590.69;5070316;28;20166;-31
2022/02/11 07:06:48;;;;;;;17.50;2.92;;;;;;;4.96;93.76;102594.09;5069212;28;20044;-29
2022/02/11 07:09:16;;;;;;;18.17;3.03;;;;;;;4.99;93.35;102613.88;5070109;28;20059;-31
2022/02/11 07:11:45;;;;;;;23.85;2.70;;;;;;;5.00;92.74;102611.94;5069128;28;20044;-31
2022/02/11 07:14:13;;;;;;;22.42;3.00;;;;;;;5.00;91.79;102629.38;5070165;28;20063;-29
2022/02/11 07:16:41;;;;;;;18.85;3.45;;;;;;;5.00;91.50;102637.69;5070972;28;20082;-29
2022/02/11 07:19:08;;;;;;;20.80;2.83;;;;;;;4.99;90.18;102643.47;5071209;28;20049;-29
2022/02/11 07:21:36;;;;;;;15.20;2.45;;;;;;;4.96;89.20;102653.03;5070331;28;20063;-29
2022/02/11 07:24:04;;;;;;;18.13;2.70;;;;;;;4.93;87.53;102664.53;5070551;28;20142;-30
2022/02/11 07:26:32;;;;;;;12.80;2.55;;;;;;;4.90;84.78;102675.19;5071025;28;20048;-30
2022/02/11 07:29:01;;;;;;;18.35;2.20;;;;;;;4.89;84.02;102690.91;5070435;28;20036;-31
2022/02/11 07:31:29;;;;;;;17.85;2.58;;;;;;;4.86;82.19;102691.34;5070682;28;20054;-30
2022/02/11 07:33:56;;;;;;;13.30;2.10;;;;;;;4.85;82.19;102678.59;5070835;28;20093;-31
2022/02/11 07:36:24;;;;;;;18.55;2.58;;;;;;;4.87;82.25;102686.66;5069659;28;20048;-31
2022/02/11 07:38:52;;;;;;;18.85;2.58;;;;;;;4.89;83.23;102693.69;5060114;28;20063;-30
2022/02/11 07:41:20;;;;;;;13.75;2.53;;;;;;;4.92;83.90;102703.47;5068699;28;20045;-29
2022/02/11 07:43:48;;;;;;;18.45;2.65;;;;;;;4.93;83.76;102714.31;5070706;28;20044;-30
2022/02/11 07:46:17;;;;;;;13.68;2.13;;;;;;;4.92;82.21;102729.22;5070193;28;20505;-31
2022/02/11 07:48:45;;;;;;;11.48;2.13;;;;;;;4.92;82.78;102731.13;5069097;28;20048;-29
2022/02/11 07:51:12;;;;;;;15.57;2.30;;;;;;;4.92;83.08;102739.44;5069674;28;20409;-31
2022/02/11 07:53:41;;;;;;;15.85;2.40;;;;;;;4.92;82.93;102743.06;5070380;28;20067;-31
2022/02/11 07:56:09;;;;;;;12.38;2.47;;;;;;;4.94;82.06;102749.22;5067618;28;20078;-31
2022/02/11 07:58:37;;;;;;;11.40;2.00;;;;;;;4.98;81.65;102746.88;5070250;28;20282;-30
2022/02/11 08:01:04;;;;;;;15.27;2.08;;;;;;;5.04;81.69;102760.69;5069977;28;20059;-29
2022/02/11 08:03:34;;;;;;;18.90;2.03;;;;;;;5.10;82.79;102765.34;5069052;28;20044;-30
2022/02/11 08:06:03;;;;;;;19.15;2.63;;;;;;;5.14;82.61;102774.94;5069880;28;20045;-29
2022/02/11 08:08:31;;;;;;;15.55;2.40;;;;;;;5.18;82.54;102789.19;5070061;28;20482;-31
2022/02/11 08:10:59;;;;;;;16.27;2.58;;;;;;;5.18;82.72;102800.25;5068853;28;20036;-30
2022/02/11 08:13:27;;;;;;;12.85;2.08;;;;;;;5.17;81.95;102804.09;5069912;28;20242;-31
2022/02/11 08:15:56;;;;;;;15.90;2.08;;;;;;;5.17;81.75;102809.63;5069813;28;20394;-30
2022/02/11 08:18:24;;;;;;;12.48;2.15;;;;;;;5.16;81.07;102813.47;5069453;28;20045;-30
2022/02/11 08:21:13;;;;;;;18.95;2.58;;;;;;;5.13;80.79;102825.81;5069924;28;20037;-30
2022/02/11 08:23:41;;;;;;;17.77;2.60;;;;;;;5.14;80.60;102841.34;5068232;28;20045;-32
2022/02/11 08:26:09;;;;;;;8.93;1.80;;;;;;;5.13;77.90;102847.09;5070921;28;20047;-31
2022/02/11 08:28:40;;;;;;;12.45;1.55;;;;;;;5.12;75.87;102860.09;5070230;28;20106;-31
2022/02/11 08:31:07;;;;;;;9.95;1.67;;;;;;;5.16;76.00;102863.28;5070220;28;20044;-30
2022/02/11 08:33:35;;;;;;;16.05;2.20;;;;;;;5.25;75.61;102861.13;5070855;28;20051;-29
2022/02/11 08:36:04;;;;;;;11.07;2.05;;;;;;;5.27;75.83;102859.00;5070940;28;20055;-30
2022/02/11 08:38:33;;;;;;;17.42;2.60;;;;;;;5.30;75.87;102881.56;5069979;28;20135;-31
2022/02/11 08:41:01;;;;;;;12.95;2.00;;;;;;;5.48;75.82;102875.34;5070270;28;20045;-32
2022/02/11 08:43:28;;;;;;;9.77;1.45;;;;;;;5.76;74.30;102881.47;5070787;28;20041;-30
2022/02/11 08:45:56;;;;;;;7.65;1.38;;;;;;;5.94;72.38;102886.34;5070448;28;20045;-31
2022/02/11 08:48:24;;;;;;;11.95;1.73;;;;;;;5.97;71.91;102893.38;5070405;28;20056;-31
2022/02/11 08:50:52;;;;;;;12.98;2.10;;;;;;;5.95;71.23;102898.28;5070708;28;20661;-30
2022/02/11 08:53:33;;;;;;;10.13;2.00;;;;;;;5.99;72.16;102910.63;5069614;28;20136;-29
2022/02/11 08:56:03;;;;;;;14.57;1.85;;;;;;;6.03;72.64;102917.41;5067602;28;20566;-29
2022/02/11 08:58:31;;;;;;;12.00;2.30;;;;;;;6.12;73.68;102913.34;5069873;28;20058;-29
2022/02/11 09:00:59;;;;;;;11.18;1.85;;;;;;;6.17;74.14;102919.94;5072011;28;20048;-30
2022/02/11 09:03:27;;;;;;;12.68;1.90;;;;;;;6.19;74.19;102934.41;5074797;28;20047;-30
2022/02/11 09:05:55;;;;;;;11.38;1.63;;;;;;;6.18;74.11;102929.13;5073757;28;20049;-30
2022/02/11 09:08:24;;;;;;;19.90;2.60;;;;;;;6.18;74.30;102951.28;5074802;28;20056;-32
2022/02/11 09:10:53;;;;;;;14.73;2.08;;;;;;;6.16;75.15;102950.66;5074644;28;20056;-31
2022/02/11 09:13:22;;;;;;;15.18;2.15;;;;;;;6.10;75.52;102943.19;5065318;28;20051;-30
2022/02/11 09:15:51;;;;;;;10.35;1.90;;;;;;;6.08;75.23;102960.03;5074440;28;20106;-29
2022/02/11 09:18:19;;;;;;;12.07;1.83;;;;;;;6.07;75.85;102971.34;5073447;28;20049;-30
2022/02/11 09:20:48;;;;;;;13.18;2.10;;;;;;;6.08;75.80;102964.75;5073505;28;20080;-30
2022/02/11 09:23:17;;;;;;;11.32;2.22;;;;;;;6.09;74.64;102983.06;5074631;28;20041;-30
2022/02/11 09:25:45;;;;;;;14.70;2.10;;;;;;;6.06;73.96;102992.66;5073809;28;20485;-33
2022/02/11 09:28:14;;;;;;;8.85;2.20;;;;;;;6.08;73.11;102995.22;5072905;28;20055;-30
2022/02/11 09:30:42;;;;;;;12.65;1.70;;;;;;;6.07;72.36;102997.16;5074060;28;20080;-32
2022/02/11 09:33:11;;;;;;;8.48;1.77;;;;;;;6.10;70.33;102987.53;5073312;28;20083;-31
2022/02/11 09:35:39;;;;;;;7.28;1.33;;;;;;;6.12;69.54;102994.59;5072262;28;20061;-31
2022/02/11 09:38:07;;;;;;;9.55;1.33;;;;;;;6.31;68.92;103003.06;5073765;28;20056;-31
2022/02/11 09:40:39;;;;;;;10.18;1.65;;;;;;;6.56;69.13;103004.03;5073520;28;20493;-31
2022/02/11 09:43:09;;;;;;;11.10;1.55;;;;;;;6.80;67.75;103000.47;5074133;28;20429;-31
2022/02/11 09:45:39;;;;;;;13.00;1.90;;;;;;;7.13;67.87;103010.53;5070035;28;20525;-32
2022/02/11 09:48:07;;;;;;;9.63;1.55;;;;;;;7.48;67.47;103014.56;5073494;28;20171;-31
2022/02/11 09:50:34;;;;;;;11.65;1.52;;;;;;;7.71;66.98;103030.59;5073728;28;20049;-31
2022/02/11 09:53:08;;;;;;;11.38;2.22;;;;;;;7.80;67.45;103026.44;5073771;28;20600;-30
2022/02/11 09:55:40;;;;;;;10.20;1.80;;;;;;;7.77;67.08;103026.94;5072903;28;20048;-31
2022/02/11 09:58:10;;;;;;;13.00;1.88;;;;;;;7.67;67.84;103032.13;5070964;28;20052;-31
2022/02/11 10:00:43;;;;;;;16.63;2.47;;;;;;;7.56;69.16;103038.44;5073543;28;20138;-31
2022/02/11 10:03:16;;;;;;;9.02;1.60;;;;;;;7.48;70.14;103049.81;5072690;28;20044;-33
2022/02/11 10:05:50;;;;;;;10.98;2.10;;;;;;;7.40;71.14;103066.75;5073592;28;20446;-30
2022/02/11 10:08:18;;;;;;;11.40;1.90;;;;;;;7.26;70.80;103069.59;5072927;28;20048;-32
2022/02/11 10:10:52;;;;;;;7.68;1.23;;;;;;;7.12;69.87;103065.22;5072731;28;20056;-30
2022/02/11 10:13:25;;;;;;;7.15;0.93;;;;;;;7.07;69.97;103076.13;5072439;28;20043;-30
2022/02/11 10:15:58;;;;;;;6.70;1.45;;;;;;;7.04;70.97;103084.91;5072731;28;20044;-29
2022/02/11 10:18:30;;;;;;;10.60;1.58;;;;;;;7.01;69.20;103084.47;5073415;28;20059;-30
2022/02/11 10:21:00;;;;;;;11.00;1.77;;;;;;;7.03;69.35;103085.97;5073368;28;20040;-30
2022/02/11 10:23:31;;;;;;;12.13;1.65;;;;;;;7.15;69.45;103095.31;5072616;28;20485;-30
2022/02/11 10:26:02;;;;;;;8.13;1.33;;;;;;;7.24;68.20;103096.75;5073158;28;20410;-30
2022/02/11 10:28:35;;;;;;;9.48;1.65;;;;;;;7.32;68.16;103103.13;5073198;28;20059;-31
2022/02/11 10:31:16;;;;;;;9.68;1.60;;;;;;;7.38;68.46;103107.81;5072723;28;20374;-30
2022/02/11 10:33:53;;;;;;;;;;;;;;;7.32;66.08;103115.09;5073312;28;20050;-31
2022/02/11 10:36:23;;;;;;;6.03;1.10;;;;;;;7.28;69.02;103112.97;5073242;28;19920;-30
2022/02/11 10:39:13;;;;;;;10.52;1.65;;;;;;;7.30;69.73;103117.22;5072245;28;20048;-31
2022/02/11 10:41:43;;;;;;;8.00;1.30;;;;;;;7.60;70.95;103121.09;5072863;28;20051;-33
2022/02/11 10:44:13;;;;;;;11.00;1.70;;;;;;;8.02;69.88;103128.91;5071742;28;20056;-32
2022/02/11 10:46:43;;;;;;;9.95;1.83;;;;;;;8.48;68.44;103136.84;5073009;28;20516;-32
2022/02/11 10:49:13;;;;;;;11.25;1.85;;;;;;;8.84;67.02;103136.03;5072860;28;20067;-31
2022/02/11 10:51:44;;;;;;;9.70;1.77;;;;;;;9.14;66.80;103141.69;5071920;28;20071;-32
2022/02/11 10:54:33;;;;;;;13.98;2.10;;;;;;;9.57;65.22;103141.50;5072615;28;20040;-32
2022/02/11 10:57:02;;;;;;;10.25;2.05;;;;;;;9.81;64.64;103151.63;5066177;28;20063;-31
2022/02/11 10:59:33;;;;;;;10.75;1.92;;;;;;;10.08;64.31;103157.66;5071774;28;20578;-31
2022/02/11 11:02:05;;;;;;;9.00;2.30;;;;;;;10.39;64.61;103159.31;5072371;28;20123;-30
2022/02/11 11:04:33;;;;;;;12.00;1.90;;;;;;;10.61;62.40;103157.59;5072611;28;20040;-31
2022/02/11 11:07:03;;;;;;;11.60;1.85;;;;;;;10.73;61.35;103160.38;5071345;28;20779;-31
2022/02/11 11:09:33;;;;;;;10.93;1.73;;;;;;;10.83;61.02;103165.34;5072643;28;20052;-30
2022/02/11 11:12:02;;;;;;;8.43;1.42;;;;;;;10.99;60.23;103161.81;5071746;28;20056;-30
2022/02/11 11:14:31;;;;;;;9.27;1.55;;;;;;;11.08;59.38;103163.13;5072162;28;20052;-31
2022/02/11 11:17:01;;;;;;;11.88;1.67;;;;;;;11.03;58.43;103168.59;5072137;28;20051;-33
2022/02/11 11:19:34;;;;;;;10.55;2.10;;;;;;;11.05;58.16;103169.19;5071180;28;20032;-31
2022/02/11 11:22:14;;;;;;;10.15;1.77;;;;;;;11.12;58.50;103172.72;5072223;28;20036;-31
2022/02/11 11:24:49;;;;;;;11.50;1.50;;;;;;;11.23;58.60;103180.22;5070959;28;20090;-32
2022/02/11 11:27:38;;;;;;;10.20;1.70;;;;;;;11.38;57.74;103177.75;5071271;28;20504;-31
2022/02/11 11:30:24;;;;;;;9.88;1.40;;;;;;;11.52;56.42;103183.03;5072185;28;20044;-31
2022/02/11 11:33:20;;;;;;;9.93;1.88;;;;;;;11.58;56.83;103184.84;5071873;28;20036;-32
2022/02/11 11:36:04;;;;;;;10.68;1.65;;;;;;;11.65;55.81;103180.78;5071637;28;20041;-31
2022/02/11 11:38:57;;;;;;;11.25;1.90;;;;;;;11.67;55.41;103180.53;5070153;28;20044;-30
2022/02/11 11:41:26;;;;;;;11.38;1.60;;;;;;;11.66;57.20;103179.69;5067973;28;20062;-31
2022/02/11 11:43:55;;;;;;;9.27;1.98;;;;;;;11.68;56.92;103182.25;5071534;28;20059;-32
2022/02/11 11:46:34;;;;;;;6.50;1.55;;;;;;;11.68;56.14;103185.03;5071348;28;20036;-31
2022/02/11 11:49:10;;;;;;;9.13;1.83;;;;;;;11.71;56.70;103187.34;5070789;28;20469;-31
2022/02/11 11:52:07;;;;;;;11.10;1.35;;;;;;;11.80;54.90;103197.03;5071486;28;20056;-31
2022/02/11 11:54:36;;;;;;;10.68;1.65;;;;;;;11.79;56.11;103195.34;5070484;28;20052;-34
2022/02/11 11:57:10;;;;;;;10.18;1.83;;;;;;;11.76;55.45;103198.66;5070255;28;20051;-31
2022/02/11 11:59:43;;;;;;;9.10;1.80;;;;;;;11.68;54.87;103202.66;5071191;28;20472;-31
2022/02/11 12:02:16;;;;;;;10.82;1.50;;;;;;;11.66;55.00;103209.59;5066284;28;20390;-31
2022/02/11 12:04:52;;;;;;;9.55;1.52;;;;;;;11.65;55.33;103208.75;5071238;28;20484;-31
2022/02/11 12:07:24;;;;;;;8.05;1.55;;;;;;;11.60;54.70;103210.59;5071112;28;20044;-31
2022/02/11 12:09:53;;;;;;;11.00;1.60;;;;;;;11.45;54.29;103204.69;5070526;28;20060;-33
2022/02/11 12:12:22;;;;;;;8.82;2.42;;;;;;;11.22;56.42;103216.78;5071332;28;20132;-32
2022/02/11 12:14:53;;;;;;;10.50;2.00;;;;;;;11.06;58.65;103212.81;5070970;28;20139;-31
2022/02/11 12:17:21;;;;;;;11.68;2.25;;;;;;;10.87;60.52;103217.69;5070407;28;20091;-31
2022/02/11 12:19:51;;;;;;;8.73;1.90;;;;;;;10.62;60.99;103222.66;5070777;28;20056;-31
2022/02/11 12:22:20;;;;;;;11.02;1.80;;;;;;;10.47;61.67;103228.72;5070956;28;20383;-31
2022/02/11 12:27:39;;;;;;;6.45;1.25;;;;;;;10.28;61.22;103230.75;5070929;28;20036;-30
2022/02/11 12:30:09;;;;;;;7.75;1.40;;;;;;;10.25;62.01;103234.00;5070218;28;20052;-34
2022/02/11 12:32:40;;;;;;;8.65;1.60;;;;;;;10.19;62.27;103231.34;5070819;28;20120;-31
2022/02/11 12:35:09;;;;;;;8.77;1.30;;;;;;;10.15;62.92;103232.88;5070696;28;20135;-32
2022/02/11 12:37:39;;;;;;;11.23;1.67;;;;;;;10.14;62.98;103232.03;5069658;28;20047;-31
2022/02/11 12:40:11;;;;;;;9.07;1.30;;;;;;;10.15;63.53;103232.88;5070144;28;20045;-37
2022/02/11 12:42:41;;;;;;;9.70;1.58;;;;;;;10.12;64.02;103227.78;5069568;28;20111;-36
2022/02/11 12:45:11;;;;;;;6.63;1.58;;;;;;;10.10;65.00;103224.38;5068838;28;20520;-31
2022/02/11 12:47:40;;;;;;;12.45;1.60;;;;;;;10.05;65.12;103239.00;5069723;28;20045;-34
2022/02/11 12:50:10;;;;;;;8.02;1.50;;;;;;;10.03;64.40;103235.59;5069938;28;20044;-31
2022/02/11 12:52:39;;;;;;;12.10;1.77;;;;;;;9.97;64.75;103228.22;5068439;28;20176;-33
2022/02/11 12:55:11;;;;;;;7.70;1.17;;;;;;;9.92;65.13;103233.66;5069308;28;20044;-32
2022/02/11 12:57:41;;;;;;;4.78;0.95;;;;;;;9.90;65.52;103244.19;5068755;28;20044;-30
2022/02/11 13:00:15;;;;;;;7.85;1.30;;;;;;;9.94;65.95;103237.91;5069808;28;20072;-31
2022/02/11 13:02:44;;;;;;;8.43;1.40;;;;;;;9.92;64.48;103245.66;5059226;28;20167;-31
2022/02/11 13:05:15;;;;;;;6.53;1.13;;;;;;;9.86;64.32;103254.09;5068485;28;20063;-31
2022/02/11 13:07:45;;;;;;;11.60;1.58;;;;;;;9.81;64.51;103257.59;5068879;28;20124;-31
2022/02/11 13:10:21;;;;;;;5.68;1.10;;;;;;;9.78;64.10;103260.03;5067143;28;20060;-30
2022/02/11 13:12:51;;;;;;;6.05;1.13;;;;;;;9.69;64.56;103256.69;5068778;28;20045;-31
2022/02/11 13:15:20;;;;;;;4.28;1.00;;;;;;;9.68;65.22;103257.78;5069083;28;20505;-34
2022/02/11 13:17:49;;;;;;;6.85;1.10;;;;;;;9.67;64.56;103256.06;5069209;28;20059;-33
2022/02/11 13:20:19;;;;;;;6.78;1.35;;;;;;;9.52;64.39;103242.56;5068411;28;20052;-31
2022/02/11 13:22:49;;;;;;;7.22;0.93;;;;;;;9.46;64.93;103246.28;5067426;28;20051;-30
2022/02/11 13:25:19;;;;;;;10.35;1.48;;;;;;;9.43;65.11;103246.72;5069444;28;20044;-31
2022/02/11 13:27:49;;;;;;;6.03;1.00;;;;;;;9.38;65.31;103249.38;5067852;28;20123;-33
2022/02/11 13:30:24;;;;;;;7.07;1.25;;;;;;;9.35;66.88;103255.41;5069275;28;20052;-31
2022/02/11 13:32:53;;;;;;;9.07;1.63;;;;;;;9.22;68.82;103259.19;5068212;28;20052;-31
2022/02/11 13:35:21;;;;;;;12.48;1.40;;;;;;;9.10;71.45;103263.00;5068377;28;20405;-32
2022/02/11 13:37:52;;;;;;;12.05;1.85;;;;;;;9.09;72.61;103261.28;5069210;28;20059;-32
2022/02/11 13:40:23;;;;;;;6.70;1.48;;;;;;;9.11;73.09;103273.91;5067245;28;20052;-31
2022/02/11 13:43:05;;;;;;;10.23;1.52;;;;;;;9.14;73.49;103270.66;5069161;28;20049;-31
2022/02/11 13:45:52;;;;;;;5.47;1.30;;;;;;;9.10;72.53;103269.41;5068581;28;20056;-33
2022/02/11 13:48:20;;;;;;;6.03;1.58;;;;;;;9.09;72.64;103272.44;5070194;28;20121;-31
2022/02/11 13:51:05;;;;;;;6.90;1.40;;;;;;;9.10;71.37;103271.34;5069358;28;20058;-31
2022/02/11 13:53:38;;;;;;;9.23;1.17;;;;;;;9.02;71.41;103271.63;5072538;28;20058;-31
2022/02/11 13:56:09;;;;;;;7.53;1.40;;;;;;;8.98;71.90;103277.69;5071834;28;20051;-32
2022/02/11 13:58:38;;;;;;;6.85;1.20;;;;;;;8.99;72.89;103284.94;5072371;28;20045;-30
2022/02/11 14:01:28;;;;;;;5.28;0.90;;;;;;;9.03;72.67;103281.69;5071726;28;20044;-30
2022/02/11 14:04:00;;;;;;;3.60;0.90;;;;;;;9.00;72.85;103283.00;5071928;28;20483;-30
2022/02/11 14:06:35;;;;;;;6.18;1.05;;;;;;;9.04;72.73;103288.97;5072863;28;20051;-30
2022/02/11 14:09:07;;;;;;;6.18;0.93;;;;;;;9.07;72.53;103288.50;5071575;28;20551;-31
2022/02/11 14:11:38;;;;;;;4.65;0.90;;;;;;;9.09;71.84;103294.72;5067806;28;20117;-32
2022/02/11 14:14:17;;;;;;;5.40;1.27;;;;;;;9.10;71.12;103297.25;5070711;28;20045;-31
2022/02/11 14:16:46;;;;;;;11.57;2.15;;;;;;;9.05;70.52;103288.75;5068694;28;20072;-31
2022/02/11 14:19:16;;;;;;;4.45;0.90;;;;;;;9.05;70.85;103291.53;5072458;28;20147;-35
2022/02/11 14:21:44;;;;;;;9.40;1.38;;;;;;;9.07;70.26;103303.28;5072663;28;20042;-30
2022/02/11 14:24:13;;;;;;;4.78;0.90;;;;;;;9.03;69.48;103306.75;5071496;28;20063;-30
2022/02/11 14:26:42;;;;;;;3.45;0.90;;;;;;;8.96;69.14;103310.47;5072633;28;20102;-32
2022/02/11 14:29:11;;;;;;;6.32;1.08;;;;;;;8.95;69.94;103311.56;5072011;28;20464;-32
2022/02/11 14:31:40;;;;;;;6.60;0.80;;;;;;;8.96;69.59;103306.84;5073090;28;20148;-31
2022/02/11 14:34:08;;;;;;;7.15;1.10;;;;;;;8.96;69.55;103318.84;5073104;28;20059;-33
2022/02/11 14:36:38;;;;;;;7.25;0.90;;;;;;;8.91;69.66;103310.31;5070599;28;20135;-32